sensor_id;sensor_type;location;lat;lon;timestamp;temperature;humidity
6484;DHT22;3275;52.376;9.694;2024-01-10T00:01:00;-4.40;96.60
6484;DHT22;3275;52.376;9.694;2024-01-10T00:03:28;-4.40;96.70
6484;DHT22;3275;52.376;9.694;2024-01-10T00:05:54;-4.40;96.80
6484;DHT22;3275;52.376;9.694;2024-01-10T00:08:22;-4.40;96.90
6484;DHT22;3275;52.376;9.694;2024-01-10T00:10:50;-4.40;96.70
6484;DHT22;3275;52.376;9.694;2024-01-10T00:13:17;-4.40;96.60
6484;DHT22;3275;52.376;9.694;2024-01-10T00:15:43;-4.40;96.70
6484;DHT22;3275;52.376;9.694;2024-01-10T00:18:10;-4.40;97.00
6484;DHT22;3275;52.376;9.694;2024-01-10T00:20:36;-4.40;97.10
6484;DHT22;3275;52.376;9.694;2024-01-10T00:23:03;-4.40;97.00
6484;DHT22;3275;52.376;9.694;2024-01-10T00:25:31;-4.40;97.00
6484;DHT22;3275;52.376;9.694;2024-01-10T00:27:58;-4.40;97.00
6484;DHT22;3275;52.376;9.694;2024-01-10T00:30:25;-4.10;97.20
6484;DHT22;3275;52.376;9.694;2024-01-10T00:32:52;-4.50;97.20
6484;DHT22;3275;52.376;9.694;2024-01-10T00:35:18;-4.50;97.30
6484;DHT22;3275;52.376;9.694;2024-01-10T00:37:45;-4.50;97.40
6484;DHT22;3275;52.376;9.694;2024-01-10T00:40:12;-4.60;97.50
6484;DHT22;3275;52.376;9.694;2024-01-10T00:42:40;-4.60;97.60
6484;DHT22;3275;52.376;9.694;2024-01-10T00:45:07;-4.60;97.80
6484;DHT22;3275;52.376;9.694;2024-01-10T00:47:34;-4.60;97.50
6484;DHT22;3275;52.376;9.694;2024-01-10T00:50:00;-4.60;97.30
6484;DHT22;3275;52.376;9.694;2024-01-10T00:52:27;-4.60;97.50
6484;DHT22;3275;52.376;9.694;2024-01-10T00:54:53;-4.60;97.50
6484;DHT22;3275;52.376;9.694;2024-01-10T00:57:20;-4.60;97.70
6484;DHT22;3275;52.376;9.694;2024-01-10T00:59:48;-4.60;97.50
6484;DHT22;3275;52.376;9.694;2024-01-10T01:02:14;-4.60;97.60
6484;DHT22;3275;52.376;9.694;2024-01-10T01:04:41;-4.60;97.60
6484;DHT22;3275;52.376;9.694;2024-01-10T01:07:08;-4.60;97.40
6484;DHT22;3275;52.376;9.694;2024-01-10T01:09:34;-4.60;97.30
6484;DHT22;3275;52.376;9.694;2024-01-10T01:12:01;-4.60;97.30
6484;DHT22;3275;52.376;9.694;2024-01-10T01:14:28;-4.60;97.50
6484;DHT22;3275;52.376;9.694;2024-01-10T01:16:56;-4.60;97.80
6484;DHT22;3275;52.376;9.694;2024-01-10T01:19:22;-4.60;97.70
6484;DHT22;3275;52.376;9.694;2024-01-10T01:21:49;-4.60;98.00
6484;DHT22;3275;52.376;9.694;2024-01-10T01:24:19;-4.60;98.00
6484;DHT22;3275;52.376;9.694;2024-01-10T01:26:45;-4.70;97.70
6484;DHT22;3275;52.376;9.694;2024-01-10T01:29:12;-4.20;97.90
6484;DHT22;3275;52.376;9.694;2024-01-10T01:31:38;-4.60;97.70
6484;DHT22;3275;52.376;9.694;2024-01-10T01:34:06;-4.70;97.70
6484;DHT22;3275;52.376;9.694;2024-01-10T01:36:33;-4.60;98.00
6484;DHT22;3275;52.376;9.694;2024-01-10T01:38:59;-4.70;98.00
6484;DHT22;3275;52.376;9.694;2024-01-10T01:41:26;-4.70;98.10
6484;DHT22;3275;52.376;9.694;2024-01-10T01:43:52;-4.70;98.00
6484;DHT22;3275;52.376;9.694;2024-01-10T01:46:19;-4.70;97.90
6484;DHT22;3275;52.376;9.694;2024-01-10T01:48:46;-4.80;97.70
6484;DHT22;3275;52.376;9.694;2024-01-10T01:51:14;-4.40;97.90
6484;DHT22;3275;52.376;9.694;2024-01-10T01:53:42;-4.80;97.80
6484;DHT22;3275;52.376;9.694;2024-01-10T01:56:11;-4.70;97.80
6484;DHT22;3275;52.376;9.694;2024-01-10T01:58:39;-4.60;97.70
6484;DHT22;3275;52.376;9.694;2024-01-10T02:01:06;-4.70;97.30
6484;DHT22;3275;52.376;9.694;2024-01-10T02:03:33;-4.70;97.20
6484;DHT22;3275;52.376;9.694;2024-01-10T02:06:00;-4.60;97.20
6484;DHT22;3275;52.376;9.694;2024-01-10T02:10:57;-4.70;96.90
6484;DHT22;3275;52.376;9.694;2024-01-10T02:13:24;-4.70;96.90
6484;DHT22;3275;52.376;9.694;2024-01-10T02:15:51;-4.70;96.80
6484;DHT22;3275;52.376;9.694;2024-01-10T02:18:18;-4.70;96.90
6484;DHT22;3275;52.376;9.694;2024-01-10T02:20:45;-4.70;97.10
6484;DHT22;3275;52.376;9.694;2024-01-10T02:23:13;-4.80;97.20
6484;DHT22;3275;52.376;9.694;2024-01-10T02:25:41;-4.80;97.50
6484;DHT22;3275;52.376;9.694;2024-01-10T02:28:07;-4.80;97.60
6484;DHT22;3275;52.376;9.694;2024-01-10T02:30:35;-4.80;97.60
6484;DHT22;3275;52.376;9.694;2024-01-10T02:33:02;-4.80;97.80
6484;DHT22;3275;52.376;9.694;2024-01-10T02:35:29;-4.80;97.80
6484;DHT22;3275;52.376;9.694;2024-01-10T02:37:58;-4.80;97.80
6484;DHT22;3275;52.376;9.694;2024-01-10T02:40:24;-4.80;97.90
6484;DHT22;3275;52.376;9.694;2024-01-10T02:42:52;-4.70;98.10
6484;DHT22;3275;52.376;9.694;2024-01-10T02:45:19;-4.80;98.10
6484;DHT22;3275;52.376;9.694;2024-01-10T02:47:46;-4.80;98.20
6484;DHT22;3275;52.376;9.694;2024-01-10T02:50:12;-4.80;98.10
6484;DHT22;3275;52.376;9.694;2024-01-10T02:52:39;-4.70;98.20
6484;DHT22;3275;52.376;9.694;2024-01-10T02:55:06;-4.80;98.00
6484;DHT22;3275;52.376;9.694;2024-01-10T02:57:33;-4.80;98.10
6484;DHT22;3275;52.376;9.694;2024-01-10T08:30:44;-5.50;99.90
6484;DHT22;3275;52.376;9.694;2024-01-10T08:33:11;-5.50;99.90
6484;DHT22;3275;52.376;9.694;2024-01-10T08:35:37;-5.50;99.90
6484;DHT22;3275;52.376;9.694;2024-01-10T08:38:04;-5.40;99.90
6484;DHT22;3275;52.376;9.694;2024-01-10T08:40:33;-5.40;99.80
6484;DHT22;3275;52.376;9.694;2024-01-10T08:42:59;-5.40;99.70
6484;DHT22;3275;52.376;9.694;2024-01-10T08:45:26;-5.40;99.70
6484;DHT22;3275;52.376;9.694;2024-01-10T08:47:54;-5.40;99.60
6484;DHT22;3275;52.376;9.694;2024-01-10T08:50:23;-5.40;99.50
6484;DHT22;3275;52.376;9.694;2024-01-10T08:52:49;-4.30;99.90
6484;DHT22;3275;52.376;9.694;2024-01-10T08:55:16;-5.30;99.70
6484;DHT22;3275;52.376;9.694;2024-01-10T08:57:43;-5.30;99.60
6484;DHT22;3275;52.376;9.694;2024-01-10T09:00:10;-5.30;99.60
6484;DHT22;3275;52.376;9.694;2024-01-10T09:02:38;-5.30;99.50
6484;DHT22;3275;52.376;9.694;2024-01-10T09:05:07;-5.20;99.50
6484;DHT22;3275;52.376;9.694;2024-01-10T09:07:36;-5.30;99.30
6484;DHT22;3275;52.376;9.694;2024-01-10T09:10:03;-5.30;99.20
6484;DHT22;3275;52.376;9.694;2024-01-10T09:12:30;-5.20;99.40
6484;DHT22;3275;52.376;9.694;2024-01-10T09:14:57;-5.20;99.30
6484;DHT22;3275;52.376;9.694;2024-01-10T09:17:23;-5.20;99.30
6484;DHT22;3275;52.376;9.694;2024-01-10T09:19:50;-5.20;99.10
6484;DHT22;3275;52.376;9.694;2024-01-10T09:22:18;-5.10;99.10
6484;DHT22;3275;52.376;9.694;2024-01-10T09:24:44;-5.10;99.40
6484;DHT22;3275;52.376;9.694;2024-01-10T09:27:11;-5.10;99.40
6484;DHT22;3275;52.376;9.694;2024-01-10T09:29:38;-5.10;99.40
6484;DHT22;3275;52.376;9.694;2024-01-10T09:32:05;-5.00;99.30
6484;DHT22;3275;52.376;9.694;2024-01-10T09:34:32;-4.90;99.30
6484;DHT22;3275;52.376;9.694;2024-01-10T09:36:58;-4.80;99.00
6484;DHT22;3275;52.376;9.694;2024-01-10T09:39:28;-4.70;98.80
6484;DHT22;3275;52.376;9.694;2024-01-10T09:41:55;-4.70;98.60
6484;DHT22;3275;52.376;9.694;2024-01-10T09:44:24;-4.60;98.40
6484;DHT22;3275;52.376;9.694;2024-01-10T09:46:52;-4.60;98.20
6484;DHT22;3275;52.376;9.694;2024-01-10T09:49:19;-4.70;97.80
6484;DHT22;3275;52.376;9.694;2024-01-10T09:51:48;-4.60;97.80
6484;DHT22;3275;52.376;9.694;2024-01-10T09:54:16;-4.60;97.90
6484;DHT22;3275;52.376;9.694;2024-01-10T09:56:47;-4.50;98.00
6484;DHT22;3275;52.376;9.694;2024-01-10T09:59:14;-4.50;97.90
6484;DHT22;3275;52.376;9.694;2024-01-10T10:01:41;-4.50;97.90
6484;DHT22;3275;52.376;9.694;2024-01-10T10:04:12;-4.40;97.70
6484;DHT22;3275;52.376;9.694;2024-01-10T10:06:39;-4.40;97.50
6484;DHT22;3275;52.376;9.694;2024-01-10T10:09:07;-4.30;97.60
6484;DHT22;3275;52.376;9.694;2024-01-10T10:11:33;-4.30;97.60
6484;DHT22;3275;52.376;9.694;2024-01-10T10:14:13;-4.30;97.30
6484;DHT22;3275;52.376;9.694;2024-01-10T10:16:40;-4.40;96.70
6484;DHT22;3275;52.376;9.694;2024-01-10T10:19:07;-4.50;96.60
6484;DHT22;3275;52.376;9.694;2024-01-10T10:21:36;-4.30;97.10
6484;DHT22;3275;52.376;9.694;2024-01-10T10:24:03;-4.40;96.30
6484;DHT22;3275;52.376;9.694;2024-01-10T10:26:32;-4.30;96.50
6484;DHT22;3275;52.376;9.694;2024-01-10T10:29:00;-4.10;96.60
6484;DHT22;3275;52.376;9.694;2024-01-10T10:31:28;-3.80;96.60
6484;DHT22;3275;52.376;9.694;2024-01-10T10:33:59;-3.90;96.40
6484;DHT22;3275;52.376;9.694;2024-01-10T10:36:26;-3.80;96.30
6484;DHT22;3275;52.376;9.694;2024-01-10T10:38:52;-3.80;96.30
6484;DHT22;3275;52.376;9.694;2024-01-10T10:41:19;-3.70;96.30
6484;DHT22;3275;52.376;9.694;2024-01-10T10:43:46;-3.70;96.10
6484;DHT22;3275;52.376;9.694;2024-01-10T10:46:13;-3.70;96.00
6484;DHT22;3275;52.376;9.694;2024-01-10T10:48:42;-3.60;95.70
6484;DHT22;3275;52.376;9.694;2024-01-10T10:51:10;-3.50;95.40
6484;DHT22;3275;52.376;9.694;2024-01-10T10:53:37;-3.50;95.70
6484;DHT22;3275;52.376;9.694;2024-01-10T10:56:07;-3.50;95.30
6484;DHT22;3275;52.376;9.694;2024-01-10T10:58:34;-3.40;95.40
6484;DHT22;3275;52.376;9.694;2024-01-10T11:01:04;-3.30;95.60
6484;DHT22;3275;52.376;9.694;2024-01-10T11:03:34;-3.30;95.30
6484;DHT22;3275;52.376;9.694;2024-01-10T11:06:03;-3.20;95.70
6484;DHT22;3275;52.376;9.694;2024-01-10T11:08:34;-3.10;95.80
6484;DHT22;3275;52.376;9.694;2024-01-10T11:11:03;-3.10;95.70
6484;DHT22;3275;52.376;9.694;2024-01-10T11:13:54;-3.10;94.70
6484;DHT22;3275;52.376;9.694;2024-01-10T11:16:43;-3.10;94.40
6484;DHT22;3275;52.376;9.694;2024-01-10T11:19:28;-3.00;94.50
6484;DHT22;3275;52.376;9.694;2024-01-10T11:22:15;-2.90;94.70
6484;DHT22;3275;52.376;9.694;2024-01-10T11:24:44;-2.90;94.10
6484;DHT22;3275;52.376;9.694;2024-01-10T11:27:13;-2.80;93.80
6484;DHT22;3275;52.376;9.694;2024-01-10T11:29:40;-2.70;93.90
6484;DHT22;3275;52.376;9.694;2024-01-10T11:32:13;-2.70;94.00
6484;DHT22;3275;52.376;9.694;2024-01-10T11:34:49;-2.70;93.80
6484;DHT22;3275;52.376;9.694;2024-01-10T11:37:18;-2.70;93.70
6484;DHT22;3275;52.376;9.694;2024-01-10T11:39:44;-2.60;94.70
6484;DHT22;3275;52.376;9.694;2024-01-10T11:42:11;-2.50;94.50
6484;DHT22;3275;52.376;9.694;2024-01-10T11:44:47;-2.50;94.20
6484;DHT22;3275;52.376;9.694;2024-01-10T11:47:15;-2.40;94.30
6484;DHT22;3275;52.376;9.694;2024-01-10T11:49:53;-2.40;93.80
6484;DHT22;3275;52.376;9.694;2024-01-10T11:52:22;-2.30;94.30
6484;DHT22;3275;52.376;9.694;2024-01-10T11:54:49;-2.30;94.00
6484;DHT22;3275;52.376;9.694;2024-01-10T11:57:20;-2.30;93.20
6484;DHT22;3275;52.376;9.694;2024-01-10T11:59:50;-2.20;93.00
6484;DHT22;3275;52.376;9.694;2024-01-10T12:02:17;-2.20;92.90
6484;DHT22;3275;52.376;9.694;2024-01-10T12:04:44;-2.10;93.00
6484;DHT22;3275;52.376;9.694;2024-01-10T12:07:12;-1.90;93.10
6484;DHT22;3275;52.376;9.694;2024-01-10T12:09:40;-1.80;92.30
6484;DHT22;3275;52.376;9.694;2024-01-10T12:12:07;-1.80;92.20
6484;DHT22;3275;52.376;9.694;2024-01-10T12:14:34;-1.20;92.50
6484;DHT22;3275;52.376;9.694;2024-01-10T12:17:02;-0.70;91.50
6484;DHT22;3275;52.376;9.694;2024-01-10T12:19:29;-0.90;90.60
6484;DHT22;3275;52.376;9.694;2024-01-10T12:21:57;-1.20;91.10
6484;DHT22;3275;52.376;9.694;2024-01-10T12:24:23;-1.50;91.00
6484;DHT22;3275;52.376;9.694;2024-01-10T12:26:55;-1.60;91.40
6484;DHT22;3275;52.376;9.694;2024-01-10T12:29:22;-1.60;91.50
6484;DHT22;3275;52.376;9.694;2024-01-10T12:31:50;-1.60;91.60
6484;DHT22;3275;52.376;9.694;2024-01-10T12:34:17;-1.60;91.00
6484;DHT22;3275;52.376;9.694;2024-01-10T12:36:44;-1.70;90.70
6484;DHT22;3275;52.376;9.694;2024-01-10T12:39:12;-1.70;90.70
6484;DHT22;3275;52.376;9.694;2024-01-10T12:41:40;-1.90;90.90
6484;DHT22;3275;52.376;9.694;2024-01-10T12:44:10;-2.00;90.70
6484;DHT22;3275;52.376;9.694;2024-01-10T12:46:49;-2.00;91.10
6484;DHT22;3275;52.376;9.694;2024-01-10T12:49:16;-2.00;91.30
6484;DHT22;3275;52.376;9.694;2024-01-10T12:51:43;-2.00;91.20
6484;DHT22;3275;52.376;9.694;2024-01-10T12:54:10;-2.00;91.40
6484;DHT22;3275;52.376;9.694;2024-01-10T12:56:36;-2.00;91.30
6484;DHT22;3275;52.376;9.694;2024-01-10T12:59:03;-1.90;91.40
6484;DHT22;3275;52.376;9.694;2024-01-10T13:01:31;-1.90;91.40
6484;DHT22;3275;52.376;9.694;2024-01-10T13:03:57;-1.90;91.70
6484;DHT22;3275;52.376;9.694;2024-01-10T13:06:24;-1.90;91.50
6484;DHT22;3275;52.376;9.694;2024-01-10T13:08:50;-1.90;91.60
6484;DHT22;3275;52.376;9.694;2024-01-10T13:11:17;-1.30;91.90
6484;DHT22;3275;52.376;9.694;2024-01-10T13:13:45;-1.90;92.00
6484;DHT22;3275;52.376;9.694;2024-01-10T13:16:12;-1.80;92.10
6484;DHT22;3275;52.376;9.694;2024-01-10T13:18:40;-1.80;92.40
6484;DHT22;3275;52.376;9.694;2024-01-10T13:21:07;-1.80;92.10
6484;DHT22;3275;52.376;9.694;2024-01-10T13:23:33;-1.80;92.30
6484;DHT22;3275;52.376;9.694;2024-01-10T13:26:01;-1.80;91.90
6484;DHT22;3275;52.376;9.694;2024-01-10T13:28:28;-1.80;91.90
6484;DHT22;3275;52.376;9.694;2024-01-10T13:30:55;-1.80;91.70
6484;DHT22;3275;52.376;9.694;2024-01-10T13:33:22;-1.80;91.80
6484;DHT22;3275;52.376;9.694;2024-01-10T13:35:52;-1.70;91.70
6484;DHT22;3275;52.376;9.694;2024-01-10T13:38:18;-1.70;91.80
6484;DHT22;3275;52.376;9.694;2024-01-10T13:40:45;-1.70;91.90
6484;DHT22;3275;52.376;9.694;2024-01-10T13:43:12;-1.70;91.70
6484;DHT22;3275;52.376;9.694;2024-01-10T13:45:38;-1.60;91.20
6484;DHT22;3275;52.376;9.694;2024-01-10T13:48:06;-1.70;91.10
6484;DHT22;3275;52.376;9.694;2024-01-10T13:50:33;-1.70;90.60
6484;DHT22;3275;52.376;9.694;2024-01-10T13:53:00;-1.60;90.70
6484;DHT22;3275;52.376;9.694;2024-01-10T13:55:28;-1.60;90.80
6484;DHT22;3275;52.376;9.694;2024-01-10T13:57:54;-1.70;90.60
6484;DHT22;3275;52.376;9.694;2024-01-10T14:00:22;-1.70;90.70
6484;DHT22;3275;52.376;9.694;2024-01-10T14:02:49;-1.60;90.80
6484;DHT22;3275;52.376;9.694;2024-01-10T14:05:15;-1.50;90.70
6484;DHT22;3275;52.376;9.694;2024-01-10T14:07:42;-1.60;90.30
6484;DHT22;3275;52.376;9.694;2024-01-10T14:10:13;-1.60;90.40
6484;DHT22;3275;52.376;9.694;2024-01-10T14:12:39;-1.60;90.30
6484;DHT22;3275;52.376;9.694;2024-01-10T14:15:06;-1.50;90.40
6484;DHT22;3275;52.376;9.694;2024-01-10T14:17:34;-1.50;90.60
6484;DHT22;3275;52.376;9.694;2024-01-10T14:20:01;-1.50;91.80
6484;DHT22;3275;52.376;9.694;2024-01-10T14:22:29;-1.50;92.10
6484;DHT22;3275;52.376;9.694;2024-01-10T14:24:55;-1.50;91.70
6484;DHT22;3275;52.376;9.694;2024-01-10T14:27:24;-1.50;92.00
6484;DHT22;3275;52.376;9.694;2024-01-10T14:29:51;-1.50;91.90
6484;DHT22;3275;52.376;9.694;2024-01-10T14:32:17;-1.50;91.70
6484;DHT22;3275;52.376;9.694;2024-01-10T14:34:44;-1.60;92.30
6484;DHT22;3275;52.376;9.694;2024-01-10T14:37:11;-1.60;91.90
6484;DHT22;3275;52.376;9.694;2024-01-10T14:39:37;-1.60;91.90
6484;DHT22;3275;52.376;9.694;2024-01-10T14:42:06;-1.60;92.10
6484;DHT22;3275;52.376;9.694;2024-01-10T14:44:35;-1.60;91.80
6484;DHT22;3275;52.376;9.694;2024-01-10T14:47:02;-1.60;91.80
6484;DHT22;3275;52.376;9.694;2024-01-10T14:49:29;-1.60;91.50
6484;DHT22;3275;52.376;9.694;2024-01-10T14:51:57;-1.60;91.10
6484;DHT22;3275;52.376;9.694;2024-01-10T14:54:23;-1.60;91.20
6484;DHT22;3275;52.376;9.694;2024-01-10T14:56:50;-1.60;91.00
6484;DHT22;3275;52.376;9.694;2024-01-10T14:59:18;-1.70;91.80
6484;DHT22;3275;52.376;9.694;2024-01-10T15:01:46;-1.70;91.50
6484;DHT22;3275;52.376;9.694;2024-01-10T15:04:13;-1.70;91.00
6484;DHT22;3275;52.376;9.694;2024-01-10T15:06:44;-1.70;91.80
6484;DHT22;3275;52.376;9.694;2024-01-10T15:09:10;-1.70;92.00
6484;DHT22;3275;52.376;9.694;2024-01-10T15:11:38;-1.80;92.00
6484;DHT22;3275;52.376;9.694;2024-01-10T15:14:05;-1.70;92.20
6484;DHT22;3275;52.376;9.694;2024-01-10T15:16:31;-1.70;92.10
6484;DHT22;3275;52.376;9.694;2024-01-10T15:18:59;-1.80;92.20
6484;DHT22;3275;52.376;9.694;2024-01-10T15:21:26;-1.80;92.20
6484;DHT22;3275;52.376;9.694;2024-01-10T15:23:53;-1.80;91.80
6484;DHT22;3275;52.376;9.694;2024-01-10T15:26:19;-1.80;91.90
6484;DHT22;3275;52.376;9.694;2024-01-10T15:28:47;-1.80;92.10
6484;DHT22;3275;52.376;9.694;2024-01-10T15:31:14;-1.80;92.50
6484;DHT22;3275;52.376;9.694;2024-01-10T15:33:41;-1.90;92.30
6484;DHT22;3275;52.376;9.694;2024-01-10T15:36:11;-1.90;92.00
6484;DHT22;3275;52.376;9.694;2024-01-10T15:38:39;-1.90;92.20
6484;DHT22;3275;52.376;9.694;2024-01-10T15:41:06;-1.90;92.60
6484;DHT22;3275;52.376;9.694;2024-01-10T15:43:32;-1.90;92.80
6484;DHT22;3275;52.376;9.694;2024-01-10T15:45:59;-1.90;92.50
6484;DHT22;3275;52.376;9.694;2024-01-10T15:48:26;-2.00;92.50
6484;DHT22;3275;52.376;9.694;2024-01-10T15:50:53;-2.00;92.90
6484;DHT22;3275;52.376;9.694;2024-01-10T15:53:21;-2.00;92.50
6484;DHT22;3275;52.376;9.694;2024-01-10T15:55:48;-2.00;92.60
6484;DHT22;3275;52.376;9.694;2024-01-10T15:58:16;-2.00;92.60
6484;DHT22;3275;52.376;9.694;2024-01-10T16:00:42;-2.00;92.60
6484;DHT22;3275;52.376;9.694;2024-01-10T16:03:09;-2.00;92.70
6484;DHT22;3275;52.376;9.694;2024-01-10T16:05:36;-2.00;92.60
6484;DHT22;3275;52.376;9.694;2024-01-10T16:08:03;-2.00;92.80
6484;DHT22;3275;52.376;9.694;2024-01-10T16:10:31;-2.00;93.00
6484;DHT22;3275;52.376;9.694;2024-01-10T16:12:57;-2.00;92.70
6484;DHT22;3275;52.376;9.694;2024-01-10T16:15:24;-2.00;93.00
6484;DHT22;3275;52.376;9.694;2024-01-10T16:17:51;-2.00;92.90
6484;DHT22;3275;52.376;9.694;2024-01-10T16:20:17;-2.00;93.00
6484;DHT22;3275;52.376;9.694;2024-01-10T16:22:44;-2.10;93.10
6484;DHT22;3275;52.376;9.694;2024-01-10T16:25:10;-2.10;93.00
6484;DHT22;3275;52.376;9.694;2024-01-10T16:27:38;-2.10;93.00
6484;DHT22;3275;52.376;9.694;2024-01-10T16:30:06;-2.10;92.90
6484;DHT22;3275;52.376;9.694;2024-01-10T16:32:33;-2.10;93.10
6484;DHT22;3275;52.376;9.694;2024-01-10T16:34:59;-2.10;93.50
6484;DHT22;3275;52.376;9.694;2024-01-10T16:37:26;-2.10;93.80
6484;DHT22;3275;52.376;9.694;2024-01-10T16:39:53;-2.10;93.70
6484;DHT22;3275;52.376;9.694;2024-01-10T16:42:19;-2.10;93.40
6484;DHT22;3275;52.376;9.694;2024-01-10T16:44:48;-2.10;93.70
6484;DHT22;3275;52.376;9.694;2024-01-10T16:47:15;-2.10;93.60
6484;DHT22;3275;52.376;9.694;2024-01-10T16:49:42;-2.10;93.50
6484;DHT22;3275;52.376;9.694;2024-01-10T16:52:08;-2.10;93.20
6484;DHT22;3275;52.376;9.694;2024-01-10T16:54:35;-2.10;93.00
6484;DHT22;3275;52.376;9.694;2024-01-10T16:57:01;-2.10;93.20
6484;DHT22;3275;52.376;9.694;2024-01-10T16:59:29;-2.10;93.50
6484;DHT22;3275;52.376;9.694;2024-01-10T17:01:57;-2.20;93.80
6484;DHT22;3275;52.376;9.694;2024-01-10T17:04:27;-2.10;94.00
6484;DHT22;3275;52.376;9.694;2024-01-10T17:06:57;-2.20;93.70
6484;DHT22;3275;52.376;9.694;2024-01-10T17:09:24;-2.20;93.60
6484;DHT22;3275;52.376;9.694;2024-01-10T17:11:51;-2.20;93.50
6484;DHT22;3275;52.376;9.694;2024-01-10T17:14:18;-2.20;93.40
6484;DHT22;3275;52.376;9.694;2024-01-10T17:16:45;-2.20;93.40
6484;DHT22;3275;52.376;9.694;2024-01-10T17:19:13;-2.20;93.60
6484;DHT22;3275;52.376;9.694;2024-01-10T17:21:40;-2.20;93.80
6484;DHT22;3275;52.376;9.694;2024-01-10T17:24:06;-2.20;94.20
6484;DHT22;3275;52.376;9.694;2024-01-10T17:26:33;-2.20;94.60
6484;DHT22;3275;52.376;9.694;2024-01-10T17:29:00;-2.30;94.40
6484;DHT22;3275;52.376;9.694;2024-01-10T17:31:28;-2.30;94.40
6484;DHT22;3275;52.376;9.694;2024-01-10T17:33:54;-2.30;94.40
6484;DHT22;3275;52.376;9.694;2024-01-10T17:36:22;-2.30;94.50
6484;DHT22;3275;52.376;9.694;2024-01-10T17:38:49;-2.30;94.70
6484;DHT22;3275;52.376;9.694;2024-01-10T17:41:17;-2.30;95.00
6484;DHT22;3275;52.376;9.694;2024-01-10T17:43:44;-2.40;95.00
6484;DHT22;3275;52.376;9.694;2024-01-10T17:46:10;-2.40;95.40
6484;DHT22;3275;52.376;9.694;2024-01-10T17:48:37;-2.40;95.30
6484;DHT22;3275;52.376;9.694;2024-01-10T17:51:04;-2.40;95.20
6484;DHT22;3275;52.376;9.694;2024-01-10T17:53:32;-2.40;95.10
6484;DHT22;3275;52.376;9.694;2024-01-10T17:55:58;-2.40;95.30
6484;DHT22;3275;52.376;9.694;2024-01-10T17:58:25;-2.50;95.30
6484;DHT22;3275;52.376;9.694;2024-01-10T18:00:51;-2.00;95.60
6484;DHT22;3275;52.376;9.694;2024-01-10T18:03:20;-2.50;95.60
6484;DHT22;3275;52.376;9.694;2024-01-10T18:05:47;-2.50;95.80
6484;DHT22;3275;52.376;9.694;2024-01-10T18:08:14;-2.50;95.80
6484;DHT22;3275;52.376;9.694;2024-01-10T18:10:42;-2.50;95.70
6484;DHT22;3275;52.376;9.694;2024-01-10T18:13:10;-2.60;95.70
6484;DHT22;3275;52.376;9.694;2024-01-10T18:15:38;-2.60;95.90
6484;DHT22;3275;52.376;9.694;2024-01-10T18:18:05;-2.60;96.10
6484;DHT22;3275;52.376;9.694;2024-01-10T18:20:33;-2.60;96.20
6484;DHT22;3275;52.376;9.694;2024-01-10T18:22:59;-2.60;96.30
6484;DHT22;3275;52.376;9.694;2024-01-10T18:25:29;-2.60;96.10
6484;DHT22;3275;52.376;9.694;2024-01-10T18:28:00;-2.60;96.10
6484;DHT22;3275;52.376;9.694;2024-01-10T18:30:26;-2.60;96.10
6484;DHT22;3275;52.376;9.694;2024-01-10T18:32:53;-2.60;96.20
6484;DHT22;3275;52.376;9.694;2024-01-10T18:35:21;-2.60;96.10
6484;DHT22;3275;52.376;9.694;2024-01-10T18:37:48;-2.50;96.40
6484;DHT22;3275;52.376;9.694;2024-01-10T18:40:14;-2.60;96.00
6484;DHT22;3275;52.376;9.694;2024-01-10T18:42:41;-2.60;96.00
6484;DHT22;3275;52.376;9.694;2024-01-10T18:45:09;-2.60;96.00
6484;DHT22;3275;52.376;9.694;2024-01-10T18:47:36;-2.60;96.00
6484;DHT22;3275;52.376;9.694;2024-01-10T18:50:03;-2.60;96.10
6484;DHT22;3275;52.376;9.694;2024-01-10T18:52:31;-2.60;96.20
6484;DHT22;3275;52.376;9.694;2024-01-10T18:54:57;-2.70;96.00
6484;DHT22;3275;52.376;9.694;2024-01-10T18:57:24;-2.70;96.00
6484;DHT22;3275;52.376;9.694;2024-01-10T18:59:51;-2.60;96.20
6484;DHT22;3275;52.376;9.694;2024-01-10T19:02:20;-2.60;96.20
6484;DHT22;3275;52.376;9.694;2024-01-10T19:04:47;-2.60;96.20
6484;DHT22;3275;52.376;9.694;2024-01-10T19:07:13;-2.60;96.10
6484;DHT22;3275;52.376;9.694;2024-01-10T19:09:40;-2.70;96.00
6484;DHT22;3275;52.376;9.694;2024-01-10T19:12:08;-2.60;96.20
6484;DHT22;3275;52.376;9.694;2024-01-10T19:14:35;-2.70;96.50
6484;DHT22;3275;52.376;9.694;2024-01-10T19:17:01;-2.70;96.40
6484;DHT22;3275;52.376;9.694;2024-01-10T19:19:30;-2.70;96.40
6484;DHT22;3275;52.376;9.694;2024-01-10T19:22:01;-2.70;96.50
6484;DHT22;3275;52.376;9.694;2024-01-10T19:24:30;-2.70;96.60
6484;DHT22;3275;52.376;9.694;2024-01-10T19:26:56;-2.70;96.80
6484;DHT22;3275;52.376;9.694;2024-01-10T19:29:23;-2.70;97.00
6484;DHT22;3275;52.376;9.694;2024-01-10T19:31:50;-2.80;97.00
6484;DHT22;3275;52.376;9.694;2024-01-10T19:34:16;-2.80;97.10
6484;DHT22;3275;52.376;9.694;2024-01-10T19:36:45;-2.90;97.40
6484;DHT22;3275;52.376;9.694;2024-01-10T19:39:12;-2.90;97.60
6484;DHT22;3275;52.376;9.694;2024-01-10T19:41:39;-2.90;97.50
6484;DHT22;3275;52.376;9.694;2024-01-10T19:44:06;-3.10;97.30
6484;DHT22;3275;52.376;9.694;2024-01-10T19:46:32;-2.90;97.50
6484;DHT22;3275;52.376;9.694;2024-01-10T19:48:59;-3.00;97.50
6484;DHT22;3275;52.376;9.694;2024-01-10T19:51:26;-3.00;97.80
6484;DHT22;3275;52.376;9.694;2024-01-10T19:53:53;-3.00;98.00
6484;DHT22;3275;52.376;9.694;2024-01-10T19:56:20;-3.00;98.00
